Startpagina
METAR-TAF:

METAR-TAF

Vliegvelden :

Emmen, Zwitserland

breedte: 47-05-32N, lengte: 8-18-16E, hoogte: 426 m

Actueel weer

Dit bericht is 16 minuten geleden gemaakt, om 20:50 UTC
Wind 15 kt uit het westzuidwesten
Temperatuur 17°C
Vochtigheid 36%
Druk 1026 hPa
Zicht 10 km of meer
Gebroken wolken op 6700 ft

METAR: LSME 232050Z AUTO 24015KT 9999NDV BKN067 17/02 Q1026 RMK

Tijdstip: 22:06 (21:06 UTC)


TAF: ontbreekt

Waarnemingen en weersverwachtingen van meer dan 4000 vliegvelden (METAR en TAF).

De beschikbare stations zijn de gele en rode punten op de kaart.

Ga met uw muis naar het station om de naam te zien.

Klik dan om waarnemingen en weersverwachtingen te zien.

kaart wijzigen: klik op de groene knoppen met een zwart kruis om in te zoomen, op de groene knop met een streepje om uit te zoomen of op de groene pijlen voor aangrenzende kaarten.


METAR-TAF: